El Astillero, Spain
Current Conditions -  °F | °C
As of 11:00 PM on Thursday 18 Dec 2014 (Local Time) from LEXJ Reporting Station
Overcast Overcast  
Wind Chill: 54°   Ceiling: 3700
Heat Index: 54°   Visibility: 6mi
Dew Point: 45°   Wind: 3mph
Humidity: 72%   Direction: 210°SSW
Pressure: 30.45"   Gusts: NA
Location:  43.4°N, 3.82°W
Report Text: LEXJ 182200Z 21003KT 9999 OVC037 12/07 Q1031
Loading
Personal Weather Stations






























Interactive Weather Map New forecast layout! Learn more

10-Day Weather Forecast

Advertisements
Track Severe Weather on mobile